»·PEaware :: TPX9105 KSNA-KSAN

TPX9105 :: KSNA-KSAN

FLIGHT INFORMATION

Flight Status: Arrived
Operator: ATP Experience
More flights by this operator :: More flights under this callsign
Pilot: Joe C. (3077)
Aircraft: BEECH AIRCRAFT BEECH AIRLINER
(B190)
More flights by this aircraft type
Origin: KSNA John Wayne-Orange Co
United States
Destination: KSAN San Diego Intl-Lindbergh
United States
More flights between these airports :: More routes between these airports
Route: V25 PACIF V208 LAX118 CARDI MZB320 MZB
File this flight plan on PilotEdge
Remarks: graduated to NOOB!
Altitude:
(Current/Filed)
9,000ft
Speed:
(Current/Filed)
190kts
Departed: 30-Jul-18 09:38 PM
Arrived: 30-Jul-18 10:04 PM
Distance/Time
Traveled:
66nm/0:26
Distance/Time
To Go:
Arrived

Flight Plot

Page will automatically refresh every two minutes.

Flight plan parsing failed; only flown route is shown


Map Options




Map Legend


Flown Route
Filed Route
Departure Airport
Arrival Airport
Navaid (VOR, NDB)
Fix

Horizontal Profiles

Position Reports

Time Latitude Longitude Heading Altitude Ground
Speed
30-Jul-18 21:11 33.674549 -117.864870 63 61ft 0kts
30-Jul-18 21:12 33.674549 -117.864870 63 61ft 0kts
30-Jul-18 21:13 33.674549 -117.864870 63 61ft 0kts
30-Jul-18 21:14 33.674549 -117.864870 63 61ft 0kts
30-Jul-18 21:15 33.674549 -117.864870 63 61ft 0kts
30-Jul-18 21:16 33.674549 -117.864870 63 61ft 0kts
30-Jul-18 21:17 33.674549 -117.864870 63 61ft 0kts
30-Jul-18 21:18 33.674549 -117.864870 63 61ft 0kts
30-Jul-18 21:19 33.674549 -117.864870 63 61ft 0kts
30-Jul-18 21:20 33.674549 -117.864870 63 61ft 0kts
30-Jul-18 21:21 33.674549 -117.864870 63 61ft 0kts
30-Jul-18 21:22 33.674549 -117.864870 63 61ft 0kts
30-Jul-18 21:23 33.674549 -117.864870 63 61ft 0kts
30-Jul-18 21:24 33.674549 -117.864870 63 61ft 0kts
30-Jul-18 21:25 33.674549 -117.864870 63 61ft 0kts
30-Jul-18 21:26 33.674549 -117.864870 63 61ft 0kts
30-Jul-18 21:27 33.674549 -117.864870 63 61ft 0kts
30-Jul-18 21:28 33.674549 -117.864870 63 61ft 0kts
30-Jul-18 21:29 33.674549 -117.864870 63 61ft 0kts
30-Jul-18 21:30 33.674549 -117.864870 63 61ft 0kts
30-Jul-18 21:31 33.674549 -117.864870 63 61ft 0kts
30-Jul-18 21:32 33.674538 -117.864897 62 61ft 1kts
30-Jul-18 21:33 33.674211 -117.864811 187 61ft 6kts
30-Jul-18 21:34 33.675379 -117.865657 23 61ft 9kts
30-Jul-18 21:35 33.678558 -117.863627 28 61ft 16kts
30-Jul-18 21:36 33.680620 -117.864945 302 61ft 4kts
30-Jul-18 21:37 33.680765 -117.865754 212 61ft 0kts
30-Jul-18 21:38 33.680764 -117.865755 212 61ft 0kts
30-Jul-18 21:39 33.660491 -117.877882 195 926ft 145kts
30-Jul-18 21:40 33.620333 -117.885095 187 3044ft 152kts
30-Jul-18 21:41 33.579237 -117.891827 189 4923ft 155kts
30-Jul-18 21:42 33.534510 -117.901336 189 6431ft 168kts
30-Jul-18 21:43 33.487175 -117.909474 188 7802ft 176kts
30-Jul-18 21:44 33.439827 -117.907045 135 8854ft 180kts
30-Jul-18 21:45 33.403100 -117.860989 136 9146ft 200kts
30-Jul-18 21:46 33.351391 -117.808682 142 8975ft 260kts
30-Jul-18 21:47 33.296086 -117.754035 133 9420ft 261kts
30-Jul-18 21:48 33.273815 -117.672155 83 9113ft 279kts
30-Jul-18 21:49 33.258974 -117.583558 108 9291ft 266kts
30-Jul-18 21:50 33.238034 -117.499709 142 8622ft 286kts
30-Jul-18 21:51 33.172964 -117.454834 150 9087ft 266kts
30-Jul-18 21:52 33.109922 -117.407431 146 8982ft 271kts
30-Jul-18 21:53 33.046058 -117.364116 157 7256ft 253kts
30-Jul-18 21:54 32.983575 -117.333827 160 5314ft 244kts
30-Jul-18 21:55 32.921432 -117.296517 155 5018ft 262kts
30-Jul-18 21:56 32.861991 -117.248406 124 5029ft 271kts
30-Jul-18 21:57 32.823559 -117.170253 118 4900ft 272kts
30-Jul-18 21:58 32.790605 -117.090820 118 4682ft 267kts
30-Jul-18 21:59 32.756014 -117.020534 126 3971ft 206kts
30-Jul-18 22:00 32.710526 -117.015647 203 3925ft 175kts
30-Jul-18 22:01 32.704469 -117.061371 287 2561ft 143kts
30-Jul-18 22:02 32.714688 -117.102262 280 1634ft 113kts
30-Jul-18 22:03 32.721600 -117.138252 286 952ft 110kts
30-Jul-18 22:04 32.729509 -117.172995 285 207ft 108kts
30-Jul-18 22:05 32.734321 -117.194596 254 18ft 6kts
30-Jul-18 22:06 32.733310 -117.195363 145 18ft 7kts
30-Jul-18 22:07 32.732095 -117.195210 241 18ft 5kts
30-Jul-18 22:08 32.732328 -117.195949 23 17ft 1kts
30-Jul-18 22:09 32.732328 -117.195951 21 17ft 0kts

Navigation Log

Ident Type
Flight plan parsing failed, navigation log unavailable